TimeCET,TemperatureF,Dew PointF,Humidity,Sea Level PressureIn,VisibilityMPH,Wind Direction,Wind SpeedMPH,Gust SpeedMPH,PrecipitationIn,Events,Conditions,WindDirDegrees,DateUTC
12:00 AM,50.0,48.2,94,30.01,6.2,NNE,5.8,-,N/A,,Scattered Clouds,20,2012-11-11 23:00:00
12:30 AM,50.0,48.2,94,30.04,6.2,North,4.6,-,N/A,,Unknown,10,2012-11-11 23:30:00
1:00 AM,50.0,46.4,87,30.04,6.2,NNE,5.8,-,N/A,,Partly Cloudy,20,2012-11-12 00:00:00
1:30 AM,50.0,46.4,87,30.04,6.2,North,4.6,-,N/A,,Mostly Cloudy,350,2012-11-12 00:30:00
2:00 AM,50.0,46.4,87,30.04,6.2,North,3.5,-,N/A,,Partly Cloudy,10,2012-11-12 01:00:00
2:30 AM,50.0,46.4,87,30.04,6.2,Variable,3.5,-,N/A,,Overcast,0,2012-11-12 01:30:00
3:00 AM,48.2,46.4,93,30.04,6.2,North,5.8,-,N/A,,Partly Cloudy,10,2012-11-12 02:00:00
3:30 AM,48.2,46.4,93,30.04,6.2,North,5.8,-,N/A,,Partly Cloudy,10,2012-11-12 02:30:00
4:00 AM,48.2,44.6,87,30.04,6.2,North,3.5,-,N/A,,Partly Cloudy,350,2012-11-12 03:00:00
4:30 AM,48.2,44.6,87,30.04,6.2,North,3.5,-,N/A,,Unknown,350,2012-11-12 03:30:00
5:00 AM,48.2,44.6,87,30.04,6.2,North,4.6,-,N/A,,Unknown,10,2012-11-12 04:00:00
5:30 AM,46.4,44.6,93,30.04,6.2,North,3.5,-,N/A,,Unknown,360,2012-11-12 04:30:00
6:00 AM,46.4,44.6,93,30.01,6.2,North,3.5,-,N/A,,Unknown,10,2012-11-12 05:00:00
6:30 AM,46.4,44.6,93,30.04,6.2,Variable,2.3,-,N/A,,Unknown,0,2012-11-12 05:30:00
7:00 AM,46.4,44.6,93,30.04,6.2,North,4.6,-,N/A,,Unknown,10,2012-11-12 06:00:00
7:30 AM,46.4,42.8,87,30.06,6.2,North,3.5,-,N/A,,Unknown,350,2012-11-12 06:30:00
8:00 AM,46.4,44.6,93,30.06,6.2,North,5.8,-,N/A,,Unknown,10,2012-11-12 07:00:00
8:30 AM,48.2,44.6,87,30.06,6.2,North,4.6,-,N/A,,Unknown,360,2012-11-12 07:30:00
9:00 AM,50.0,46.4,87,30.09,6.2,North,4.6,-,N/A,,Unknown,360,2012-11-12 08:00:00
9:30 AM,51.8,48.2,88,30.09,6.2,North,3.5,-,N/A,,Unknown,360,2012-11-12 08:30:00
10:00 AM,53.6,48.2,82,30.09,6.2,North,4.6,-,N/A,,Unknown,350,2012-11-12 09:00:00
10:30 AM,59.0,51.8,77,30.09,6.2,North,3.5,-,N/A,,Unknown,360,2012-11-12 09:30:00
11:00 AM,60.8,51.8,72,30.09,6.2,North,3.5,-,N/A,,Unknown,10,2012-11-12 10:00:00
11:30 AM,60.8,51.8,72,30.09,6.2,Variable,2.3,-,N/A,,Unknown,0,2012-11-12 10:30:00
12:00 PM,66.2,51.8,60,30.09,6.2,Variable,1.2,-,N/A,,Unknown,0,2012-11-12 11:00:00
12:30 PM,68.0,51.8,56,30.06,6.2,Variable,1.2,-,N/A,,Unknown,0,2012-11-12 11:30:00
1:00 PM,68.0,48.2,49,30.06,6.2,SSE,2.3,-,N/A,,Unknown,160,2012-11-12 12:00:00
1:30 PM,66.2,51.8,60,30.06,6.2,South,5.8,-,N/A,,Unknown,170,2012-11-12 12:30:00
2:00 PM,66.2,50.0,56,30.06,6.2,SSE,4.6,-,N/A,,Unknown,160,2012-11-12 13:00:00
2:30 PM,68.0,50.0,52,30.06,6.2,South,3.5,-,N/A,,Unknown,170,2012-11-12 13:30:00
3:00 PM,68.0,50.0,52,30.06,6.2,Variable,3.5,-,N/A,,Unknown,0,2012-11-12 14:00:00
3:30 PM,66.2,50.0,56,30.06,6.2,South,2.3,-,N/A,,Unknown,180,2012-11-12 14:30:00
4:00 PM,66.2,51.8,60,30.06,6.2,South,3.5,-,N/A,,Unknown,190,2012-11-12 15:00:00
4:30 PM,64.4,50.0,59,30.06,6.2,Calm,Calm,-,N/A,,Unknown,0,2012-11-12 15:30:00
5:00 PM,59.0,48.2,67,30.06,6.2,North,3.5,-,N/A,,Unknown,10,2012-11-12 16:00:00
5:30 PM,57.2,48.2,72,30.09,6.2,Variable,3.5,-,N/A,,Unknown,0,2012-11-12 16:30:00
6:00 PM,55.4,48.2,77,30.09,6.2,Variable,3.5,-,N/A,,Unknown,0,2012-11-12 17:00:00
6:30 PM,53.6,48.2,82,30.09,0.9,Variable,2.3,-,N/A,,Mist,0,2012-11-12 17:30:00
7:00 PM,53.6,48.2,82,30.12,6.2,Variable,2.3,-,N/A,,Unknown,0,2012-11-12 18:00:00
7:30 PM,51.8,48.2,88,30.12,6.2,Variable,2.3,-,N/A,,Unknown,0,2012-11-12 18:30:00
8:00 PM,51.8,48.2,88,30.12,6.2,North,3.5,-,N/A,,Unknown,360,2012-11-12 19:00:00
8:30 PM,51.8,48.2,88,30.15,6.2,North,3.5,-,N/A,,Unknown,350,2012-11-12 19:30:00
9:00 PM,50.0,46.4,87,30.15,6.2,North,4.6,-,N/A,,Unknown,360,2012-11-12 20:00:00
9:30 PM,50.0,46.4,87,30.15,6.2,Variable,3.5,-,N/A,,Unknown,0,2012-11-12 20:30:00
10:00 PM,50.0,46.4,87,30.18,6.2,Variable,3.5,-,N/A,,Unknown,0,2012-11-12 21:00:00
10:30 PM,50.0,46.4,87,30.18,6.2,North,3.5,-,N/A,,Unknown,360,2012-11-12 21:30:00
11:00 PM,48.2,46.4,93,30.18,6.2,North,4.6,-,N/A,,Unknown,360,2012-11-12 22:00:00
11:30 PM,48.2,44.6,87,30.18,6.2,Variable,3.5,-,N/A,,Unknown,0,2012-11-12 22:30:00